createdAt,value
2022-09-30T00:02:56.938Z,100439.47
2022-09-30T00:07:55.684Z,100443.66
2022-09-30T00:12:54.803Z,100435.09
2022-09-30T00:17:53.471Z,100429.38
2022-09-30T00:22:53.539Z,100442.59
2022-09-30T00:27:52.315Z,100443.53
2022-09-30T00:32:51.015Z,100439.00
2022-09-30T00:37:49.742Z,100434.59
2022-09-30T00:42:50.433Z,100430.19
2022-09-30T00:47:53.854Z,100433.34
2022-09-30T00:52:57.096Z,100444.69
2022-09-30T00:57:58.383Z,100448.94
2022-09-30T01:02:57.438Z,100445.22
2022-09-30T01:07:59.121Z,100438.53
2022-09-30T01:13:00.142Z,100436.47
2022-09-30T01:18:07.917Z,100437.75
2022-09-30T01:23:24.980Z,100444.44
2022-09-30T01:28:56.595Z,100445.06
2022-09-30T01:34:03.865Z,100447.78
2022-09-30T01:39:16.772Z,100444.59
2022-09-30T01:44:20.400Z,100455.75
2022-09-30T01:49:31.138Z,100463.56
2022-09-30T01:54:35.566Z,100455.84
2022-09-30T01:59:38.613Z,100462.31
2022-09-30T02:04:43.734Z,100460.81
2022-09-30T02:09:49.377Z,100456.44
2022-09-30T02:14:54.527Z,100462.13
2022-09-30T02:20:00.611Z,100471.44
2022-09-30T02:25:03.159Z,100471.88
2022-09-30T02:30:04.194Z,100472.72
2022-09-30T02:35:08.862Z,100484.38
2022-09-30T02:40:13.161Z,100482.00
2022-09-30T02:45:16.498Z,100491.31
2022-09-30T02:50:21.690Z,100486.28
2022-09-30T02:55:28.163Z,100485.03
2022-09-30T03:00:27.992Z,100486.63
2022-09-30T03:05:28.945Z,100493.13
2022-09-30T03:10:30.548Z,100496.66
2022-09-30T03:15:42.356Z,100503.47
2022-09-30T03:20:53.823Z,100504.59
2022-09-30T03:26:00.473Z,100494.91
2022-09-30T03:31:07.135Z,100493.06
2022-09-30T03:36:15.219Z,100495.88
2022-09-30T03:41:20.540Z,100487.78
2022-09-30T03:46:26.181Z,100487.81
2022-09-30T03:51:26.575Z,100492.03
2022-09-30T03:56:29.754Z,100491.19
2022-09-30T04:01:29.418Z,100494.13
2022-09-30T04:06:29.639Z,100490.38
2022-09-30T04:11:28.434Z,100502.31
2022-09-30T04:16:27.271Z,100496.75
2022-09-30T04:21:28.824Z,100507.44
2022-09-30T04:26:29.024Z,100498.75
2022-09-30T04:31:27.824Z,100497.16
2022-09-30T04:36:26.611Z,100506.31
2022-09-30T04:41:25.966Z,100511.53
2022-09-30T04:46:26.171Z,100518.22
2022-09-30T04:51:24.882Z,100534.97
2022-09-30T04:56:24.552Z,100539.88
2022-09-30T05:01:23.417Z,100551.53
2022-09-30T05:06:23.583Z,100561.69
2022-09-30T05:11:23.158Z,100575.16
2022-09-30T05:16:21.980Z,100569.69
2022-09-30T05:21:21.285Z,100569.69
2022-09-30T05:26:21.354Z,100573.06
2022-09-30T05:31:21.017Z,100573.47
2022-09-30T05:36:19.847Z,100575.72
2022-09-30T05:41:20.511Z,100563.47
2022-09-30T05:46:21.272Z,100562.75
2022-09-30T05:51:20.208Z,100581.56
2022-09-30T05:56:18.970Z,100581.84
2022-09-30T06:01:18.197Z,100593.63
2022-09-30T06:06:20.175Z,100591.38
2022-09-30T06:11:20.969Z,100598.38
2022-09-30T06:16:20.286Z,100608.09
2022-09-30T06:21:22.946Z,100624.25
2022-09-30T06:26:24.653Z,100632.41
2022-09-30T06:31:23.898Z,100624.50
2022-09-30T06:36:24.043Z,100623.03
2022-09-30T06:41:27.688Z,100627.34
2022-09-30T06:46:31.072Z,100634.34
2022-09-30T06:51:33.270Z,100644.81
2022-09-30T06:56:32.741Z,100653.81
2022-09-30T07:01:31.478Z,100654.13
2022-09-30T07:06:31.307Z,100657.91
2022-09-30T07:11:31.412Z,100660.09
2022-09-30T07:16:31.761Z,100662.91
2022-09-30T07:21:32.059Z,100676.59
2022-09-30T07:26:32.296Z,100678.06
2022-09-30T07:31:34.008Z,100673.50
2022-09-30T07:36:34.482Z,100676.03
2022-09-30T07:41:36.632Z,100678.81
2022-09-30T07:46:39.235Z,100685.97
2022-09-30T07:51:41.028Z,100691.94
2022-09-30T07:57:10.285Z,100690.19
2022-09-30T08:02:03.113Z,100691.94
2022-09-30T08:07:03.587Z,100689.97
2022-09-30T08:12:07.411Z,100684.31
2022-09-30T08:17:06.364Z,100697.16
2022-09-30T08:22:06.622Z,100710.94
2022-09-30T08:27:07.041Z,100708.91
2022-09-30T08:32:06.000Z,100719.81
2022-09-30T08:37:09.259Z,100725.22
2022-09-30T08:42:36.602Z,100712.13
2022-09-30T08:47:48.177Z,100713.50
2022-09-30T08:52:50.209Z,100711.25
2022-09-30T08:57:51.447Z,100713.22
2022-09-30T09:02:55.936Z,100717.00
2022-09-30T09:08:05.152Z,100710.03
2022-09-30T09:13:13.575Z,100711.53
2022-09-30T09:18:47.087Z,100705.88
2022-09-30T09:23:46.420Z,100717.81
2022-09-30T09:28:58.173Z,100720.81
2022-09-30T09:34:01.946Z,100710.41
2022-09-30T09:39:17.684Z,100711.78
2022-09-30T09:44:26.989Z,100709.00
2022-09-30T09:49:32.468Z,100705.22
2022-09-30T09:54:34.182Z,100697.75
2022-09-30T09:59:34.291Z,100698.53
2022-09-30T10:04:33.330Z,100688.88
2022-09-30T10:09:34.790Z,100688.41
2022-09-30T10:14:36.700Z,100686.00
2022-09-30T10:19:36.558Z,100683.50
2022-09-30T10:24:36.735Z,100692.47
2022-09-30T10:29:37.500Z,100684.38
2022-09-30T10:34:39.844Z,100689.25
2022-09-30T10:39:40.571Z,100679.50
2022-09-30T10:44:47.067Z,100688.25
2022-09-30T10:49:49.769Z,100671.75
2022-09-30T10:54:51.254Z,100670.59
2022-09-30T10:59:54.554Z,100657.81
2022-09-30T11:05:03.869Z,100656.97
2022-09-30T11:10:07.975Z,100676.69
2022-09-30T11:15:17.539Z,100685.25
2022-09-30T11:20:22.315Z,100692.38
2022-09-30T11:25:28.959Z,100683.03
2022-09-30T11:30:39.332Z,100684.66
2022-09-30T11:35:47.393Z,100693.31
2022-09-30T11:40:55.936Z,100693.06
2022-09-30T11:46:18.066Z,100690.34
2022-09-30T11:51:25.260Z,100702.63
2022-09-30T11:56:37.702Z,100693.16
2022-09-30T12:01:44.024Z,100693.59
2022-09-30T12:06:50.230Z,100687.91
2022-09-30T12:11:55.714Z,100669.66
2022-09-30T12:16:57.907Z,100670.88
2022-09-30T12:22:02.638Z,100667.81
2022-09-30T12:27:02.323Z,100679.00
2022-09-30T12:32:21.618Z,100681.56
2022-09-30T12:37:35.779Z,100687.41
2022-09-30T12:43:02.174Z,100687.16
2022-09-30T12:48:08.006Z,100679.13
2022-09-30T12:53:17.763Z,100668.66
2022-09-30T12:58:26.186Z,100676.50
2022-09-30T13:03:28.854Z,100678.72
2022-09-30T13:08:50.593Z,100670.63
2022-09-30T13:14:03.887Z,100681.41
2022-09-30T13:19:04.180Z,100680.41
2022-09-30T13:24:04.664Z,100681.50
2022-09-30T13:29:38.263Z,100674.56
2022-09-30T13:34:56.754Z,100678.50
2022-09-30T13:39:58.015Z,100683.22
2022-09-30T13:45:03.820Z,100700.34
2022-09-30T13:50:14.319Z,100698.66
2022-09-30T13:55:19.798Z,100705.91
2022-09-30T14:00:21.540Z,100698.94
2022-09-30T14:05:42.606Z,100699.91
2022-09-30T14:10:58.817Z,100706.38
2022-09-30T14:16:22.926Z,100718.38
2022-09-30T14:21:35.263Z,100720.72
2022-09-30T14:26:56.365Z,100728.19
2022-09-30T14:32:12.977Z,100731.84
2022-09-30T14:37:20.083Z,100743.53
2022-09-30T14:42:25.438Z,100742.06
2022-09-30T14:47:25.963Z,100746.47
2022-09-30T14:52:38.398Z,100749.09
2022-09-30T14:57:37.198Z,100767.47
2022-09-30T15:02:36.263Z,100767.19
2022-09-30T15:07:36.535Z,100776.88
2022-09-30T15:12:37.581Z,100785.19
2022-09-30T15:17:38.896Z,100783.63
2022-09-30T15:22:47.777Z,100787.44
2022-09-30T15:27:46.998Z,100801.28
2022-09-30T15:32:50.277Z,100810.97
2022-09-30T15:37:53.083Z,100810.50
2022-09-30T15:42:59.691Z,100819.66
2022-09-30T15:48:02.451Z,100834.09
2022-09-30T15:53:08.936Z,100833.13
2022-09-30T15:58:36.548Z,100836.63
2022-09-30T16:03:38.746Z,100852.75
2022-09-30T16:08:45.488Z,100855.97
2022-09-30T16:13:45.933Z,100860.34
2022-09-30T16:18:54.982Z,100861.44
2022-09-30T16:23:55.633Z,100874.78
2022-09-30T16:28:56.020Z,100869.56
2022-09-30T16:33:54.689Z,100881.53
2022-09-30T16:38:54.865Z,100887.66
2022-09-30T16:43:53.703Z,100889.38
2022-09-30T16:48:52.781Z,100886.69
2022-09-30T16:53:51.934Z,100899.59
2022-09-30T16:58:52.568Z,100912.94
2022-09-30T17:03:54.346Z,100914.53
2022-09-30T17:08:53.655Z,100915.88
2022-09-30T17:13:54.012Z,100919.09
2022-09-30T17:18:53.551Z,100923.13
2022-09-30T17:23:52.681Z,100933.34
2022-09-30T17:28:51.557Z,100932.59
2022-09-30T17:33:52.004Z,100940.78
2022-09-30T17:38:56.549Z,100937.66
2022-09-30T17:43:55.521Z,100963.97
2022-09-30T17:48:58.062Z,100969.03
2022-09-30T17:53:57.102Z,100979.31
2022-09-30T17:58:58.494Z,100986.88
2022-09-30T18:04:01.334Z,100986.72
2022-09-30T18:09:00.771Z,100996.78
2022-09-30T18:14:02.036Z,100981.78
2022-09-30T18:19:02.936Z,100987.88
2022-09-30T18:24:02.138Z,100987.78
2022-09-30T18:29:01.204Z,100991.22
2022-09-30T18:34:03.050Z,100999.41
2022-09-30T18:39:02.823Z,101003.22
2022-09-30T18:44:02.585Z,101016.97
2022-09-30T18:49:03.402Z,101013.50
2022-09-30T18:54:02.663Z,101006.81
2022-09-30T18:59:04.211Z,101009.94
2022-09-30T19:04:07.290Z,101015.56
2022-09-30T19:09:08.092Z,101007.88
2022-09-30T19:14:07.145Z,101018.91
2022-09-30T19:19:08.302Z,101016.06
2022-09-30T19:24:11.447Z,101018.09
2022-09-30T19:29:11.534Z,101027.75
2022-09-30T19:34:15.582Z,101029.47
2022-09-30T19:39:18.854Z,101027.16
2022-09-30T19:44:19.265Z,101029.53
2022-09-30T19:49:21.755Z,101033.28
2022-09-30T19:54:33.845Z,101039.34
2022-09-30T19:59:37.103Z,101054.91
2022-09-30T20:04:41.531Z,101054.00
2022-09-30T20:09:42.859Z,101054.38
2022-09-30T20:14:59.088Z,101060.09
2022-09-30T20:20:27.564Z,101064.00
2022-09-30T20:25:38.497Z,101067.53
2022-09-30T20:30:51.495Z,101054.56
2022-09-30T20:35:55.734Z,101059.72
2022-09-30T20:40:57.241Z,101076.38
2022-09-30T20:46:00.356Z,101079.88
2022-09-30T20:51:01.076Z,101079.84
2022-09-30T20:56:02.050Z,101083.84
2022-09-30T21:01:03.700Z,101078.06
2022-09-30T21:06:03.902Z,101072.41
2022-09-30T21:11:04.062Z,101094.28
2022-09-30T21:16:05.288Z,101100.91
2022-09-30T21:21:06.124Z,101101.16
2022-09-30T21:26:07.240Z,101100.44
2022-09-30T21:31:08.072Z,101108.06
2022-09-30T21:36:08.495Z,101118.59
2022-09-30T21:41:08.666Z,101123.88
2022-09-30T21:46:09.313Z,101124.00
2022-09-30T21:51:10.337Z,101119.91
2022-09-30T21:56:11.726Z,101123.09
2022-09-30T22:01:11.800Z,101119.44
2022-09-30T22:06:13.132Z,101120.06
2022-09-30T22:11:17.703Z,101131.56
2022-09-30T22:16:17.018Z,101128.66
2022-09-30T22:21:19.316Z,101136.34
2022-09-30T22:26:21.477Z,101153.03
2022-09-30T22:31:22.270Z,101154.06
2022-09-30T22:36:39.652Z,101149.44
2022-09-30T22:41:39.406Z,101163.06
2022-09-30T22:46:39.484Z,101159.28
2022-09-30T22:51:39.715Z,101152.97
2022-09-30T22:56:38.569Z,101162.34
2022-09-30T23:01:37.575Z,101165.88
2022-09-30T23:06:36.776Z,101169.19
2022-09-30T23:11:37.018Z,101186.13
2022-09-30T23:16:35.982Z,101190.63
2022-09-30T23:21:35.498Z,101196.00
2022-09-30T23:26:34.591Z,101194.28
2022-09-30T23:31:35.816Z,101196.00
2022-09-30T23:36:36.985Z,101187.22
2022-09-30T23:41:36.496Z,101197.25
2022-09-30T23:46:37.117Z,101182.41
2022-09-30T23:51:36.199Z,101189.75
2022-09-30T23:56:35.333Z,101200.63
